METAR v bližini

 

LJLJ - Ljubljana/Brnik, Slovenia
Oddaljenost od postaje: Z 41km
Podatki zajeti: 24/09/2017 10:00
Oblačno
Oblačno
 Veter iz smeri VJV
Veter: VJV 6 km/h
Temperatura: 14°C
Rosišče: 12°C
Vlažnost: 88%
Tlak: 1020 hPa
Oblačnost: Oblačno
Vidljivost: 10 km
Podrobnosti o oblakih: Delno oblačno 305 m
Oblačno 762 m
2017/09/24 08:00 LJLJ 240800Z 11003KT 9999 SCT010 OVC025 14/12 Q1020 NOSIG
LJMB - Maribor, Slovenia
Oddaljenost od postaje: SV 63km
Podatki zajeti: 24/09/2017 10:00
Pretežno oblačno
Pretežno oblačno
 Veter iz smeri spremenljiv
Veter: spremenljiv 4 km/h
Temperatura: 14°C
Rosišče: 12°C
Vlažnost: 88%
Tlak: 1021 hPa
Oblačnost: Pretežno oblačno
Vidljivost: 10 km
Podrobnosti o oblakih: Rahlo oblačno 701 m
Pretežno oblačno 914 m
2017/09/24 08:00 LJMB 240800Z VRB02KT 9999 FEW023 BKN030 14/12 Q1021
 
LJPZ - Portoroz, Slovenia
Oddaljenost od postaje: JZ 130km
Podatki zajeti: 24/09/2017 10:00
Nevihte, Pretežno oblačno
Nevihte, Pretežno oblačno
 Veter iz smeri spremenljiv
Veter: spremenljiv 4 km/h
Temperatura: 19°C
Rosišče: 15°C
Vlažnost: 78%
Tlak: 1018 hPa
Stanje: Nevihte
Oblačnost: Pretežno oblačno
Vidljivost: 10 km
Podrobnosti o oblakih: Pretežno oblačno 1219 m
Rahlo oblačno 1524 m
Pretežno oblačno 2134 m
2017/09/24 08:00 LJPZ 240800Z VRB02KT 9999 TS BKN040 FEW050CB BKN070 19/15 Q1018
LJCE - Cerklje, Slovenia
Oddaljenost od postaje: VJV 49km
Podatki zajeti: 24/09/2017 10:00
Oblačno
Oblačno
 Veter iz smeri VSV
Veter: VSV 9 km/h
Temperatura: 15°C
Rosišče: 12°C
Vlažnost: 82%
Tlak: 1020 hPa
Oblačnost: Oblačno
Vidljivost: 10 km
Podrobnosti o oblakih: Rahlo oblačno 457 m
Pretežno oblačno 914 m
Oblačno 1829 m
2017/09/24 08:00 LJCE 240800Z 06005KT 030V090 9999 FEW015 BKN030 OVC060 15/12 Q1020 RMK BLU
 
LDZA - Zagreb/Pleso, Croatia
Oddaljenost od postaje: VJV 96km
Podatki zajeti: 24/09/2017 10:00
Delno oblačno
Delno oblačno
 Veter iz smeri V
Veter: V 7 km/h
Temperatura: 14°C
Rosišče: 12°C
Vlažnost: 88%
Tlak: 1020 hPa
Oblačnost: Delno oblačno
Vidljivost: 10 km
Podrobnosti o oblakih: Rahlo oblačno 366 m
Delno oblačno 1097 m
2017/09/24 08:00 LDZA 240800Z 08004KT 030V140 9999 FEW012 SCT036 14/12 Q1020 NOSIG
LDRI - Rijeka/Omisalj, Croatia
Oddaljenost od postaje: JJZ 109km
Podatki zajeti: 24/09/2017 10:00
Nevihte v okolici, Pretežno oblačno
Nevihte v okolici, Pretežno oblačno
 Veter iz smeri SSZ
Veter: SSZ 6 km/h
Temperatura: 18°C
Rosišče: 14°C
Vlažnost: 78%
Tlak: 1019 hPa
Stanje: Nevihte v okolici
Oblačnost: Pretežno oblačno
Vidljivost: 10 km
Podrobnosti o oblakih: Rahlo oblačno 610 m
Pretežno oblačno 1067 m
2017/09/24 08:00 LDRI 240800Z 33003KT 270V360 9999 VCTS FEW020CB BKN035 18/14 Q1019
 
LDPL - Pula, Croatia
Oddaljenost od postaje: JJZ 164km
Podatki zajeti: 24/09/2017 10:00
Manjša nevihta, Dež, Delno oblačno
Manjša nevihta, Dež, Delno oblačno
 Veter iz smeri VSV
Veter: VSV 11 km/h
Temperatura: 18°C
Rosišče: 16°C
Vlažnost: 88%
Tlak: 1018 hPa
Stanje: Manjša nevihta, Dež
Oblačnost: Delno oblačno
Vidljivost: 10 km
Podrobnosti o oblakih: Rahlo oblačno 274 m
Delno oblačno 366 m
Delno oblačno 610 m
2017/09/24 08:00 LDPL 240800Z 06006KT 030V090 9999 -TSRA FEW009 SCT012 SCT020CB 18/16 Q1018 TEMPO TSRA
LOWK - Klagenfurt(Civ/M, Austria
Oddaljenost od postaje: SZ 76km
Podatki zajeti: 24/09/2017 10:20
Pretežno oblačno
Pretežno oblačno
 Veter iz smeri spremenljiv
Veter: spremenljiv 4 km/h
Temperatura: 13°C
Rosišče: 12°C
Vlažnost: 94%
Tlak: 1021 hPa
Oblačnost: Pretežno oblačno
Vidljivost: 10 km
Podrobnosti o oblakih: Rahlo oblačno 122 m
Delno oblačno 244 m
Pretežno oblačno 914 m
2017/09/24 08:20 LOWK 240820Z VRB02KT 9999 FEW004 SCT008 BKN030 13/12 Q1021 NOSIG
 
LOWG - Graz (mil/Civ), Austria
Oddaljenost od postaje: SSV 100km
Podatki zajeti: 24/09/2017 10:20
Pretežno oblačno
Pretežno oblačno
 Veter iz smeri spremenljiv
Veter: spremenljiv 2 km/h
Temperatura: 15°C
Rosišče: 11°C
Vlažnost: 77%
Tlak: 1021 hPa
Oblačnost: Pretežno oblačno
Vidljivost: 10 km
Podrobnosti o oblakih: Rahlo oblačno 1219 m
Pretežno oblačno 2591 m
2017/09/24 08:20 LOWG 240820Z VRB01KT 9999 FEW040 BKN085 15/11 Q1021 NOSIG
LOWZ - Zell Am See, Austria
Oddaljenost od postaje: SZ 211km
Podatki zajeti: 31/12/2016 17:00
Ni posodobljen
Jasno
Jasno
 Veter iz smeri spremenljiv
Veter: spremenljiv 4 km/h
Temperatura: -4°C
Rosišče: -7°C
Vlažnost: 80%
Tlak: 1031 hPa
Oblačnost: Jasno
2016/12/31 16:00 LOWZ 311600Z VRB02KT 50KM SKC M04/M07 Q1031
 
LOAN - Wr.neustadt East, Austria
Oddaljenost od postaje: SSV 212km
Podatki zajeti: 24/09/2017 10:00
Pretežno oblačno
Pretežno oblačno
 Veter iz smeri spremenljiv
Veter: spremenljiv 4 km/h
Oblačnost: Pretežno oblačno
Podrobnosti o oblakih: Rahlo oblačno 914 m
Delno oblačno 3048 m
Pretežno oblačno 9144 m
2017/09/24 08:00 LOAN 240800Z VRB02KT 20KM FEW030CU SCT100AC BKN300CI
LIPQ - Ronchi Legionari, Italy
Oddaljenost od postaje: JZ 35km
Podatki zajeti: 24/09/2017 10:20
Nevihta, Pretežno oblačno
Nevihta, Pretežno oblačno
 Veter iz smeri Z
Veter: Z 11 km/h
Temperatura: 15°C
Rosišče: 15°C
Vlažnost: 100%
Tlak: 1018 hPa
Stanje: Thunderstorm Rain
Oblačnost: Pretežno oblačno
Vidljivost: 3 km
Podrobnosti o oblakih: Rahlo oblačno 457 m
Pretežno oblačno 762 m
2017/09/24 08:20 LIPQ 240820Z 28006KT 3000 TSRA FEW015CB BKN025 15/15 Q1018
 
LIVT - Trieste, Italy
Oddaljenost od postaje: ZJZ 109km
Podatki zajeti: 24/09/2017 09:55
Rahlo rosi, Pretežno oblačno
Rahlo rosi, Pretežno oblačno
 Veter iz smeri SSV
Veter: SSV 2 km/h
Temperatura: 17°C
Rosišče: 15°C
Vlažnost: 88%
Tlak: 1017 hPa
Stanje: Rahlo rosi
Oblačnost: Pretežno oblačno
Vidljivost: 10 km
Podrobnosti o oblakih: Pretežno oblačno 762 m
2017/09/24 07:55 LIVT 240755Z 02001KT 9999 -DZ BKN025 17/15 Q1017 RMK OVC QUK 0 QUL 0 VIS MAR 10 KM VIS MIN 9999
LIVO - Tarvisio, Italy
Oddaljenost od postaje: SSZ 49km
Podatki zajeti: 24/09/2017 09:55
Pretežno oblačno
Pretežno oblačno
 Veter iz smeri calm
Veter: Tišina
Temperatura: 12°C
Rosišče: 11°C
Vlažnost: 94%
Tlak: 1019 hPa
Oblačnost: Pretežno oblačno
Vidljivost: 10 km
Podrobnosti o oblakih: Delno oblačno 610 m
Pretežno oblačno 853 m
2017/09/24 07:55 LIVO 240755Z 00000KT 9999 SCT020 BKN028 12/11 Q1019 RMK OVC VIS MIN 9999
 
LIPZ - Venezia/Tessera, Italy
Oddaljenost od postaje: ZJZ 217km
Podatki zajeti: 24/09/2017 10:20
Manjša nevihta, Dež, Pretežno oblačno
Manjša nevihta, Dež, Pretežno oblačno
 Veter iz smeri S
Veter: S 11 km/h
Temperatura: 15°C
Rosišče: 14°C
Vlažnost: 94%
Tlak: 1018 hPa
Stanje: Manjša nevihta, Dež
Oblačnost: Pretežno oblačno
Vidljivost: 5 km
Podrobnosti o oblakih: Delno oblačno 457 m
Pretežno oblačno 1219 m
2017/09/24 08:20 LIPZ 240820Z 01006KT 330V030 5000 -TSRA SCT015CB BKN040 15/14 Q1018 RESHRA NOSIG
LHSM - Balaton, Hungary
Oddaljenost od postaje: VSV 177km
Podatki zajeti: 24/09/2017 09:45
Delno oblačno
Delno oblačno
 Veter iz smeri SZ
Veter: SZ 4 km/h
Temperatura: 14°C
Rosišče: 12°C
Vlažnost: 88%
Tlak: 1021 hPa
Oblačnost: Delno oblačno
Vidljivost: 6 km
Podrobnosti o oblakih: Delno oblačno 2530 m
2017/09/24 07:45 LHSM 240745Z 31002KT 6000 SCT083 14/12 Q1021 NOSIG